ADDS METAR Data INFO
IDs: Format: Raw Decoded Include TAF

Data at: 2055 UTC 19 Jul 2018

KMCX 192055Z AUTO 17007G14KT 10SM CLR 30/14 A2994 RMK AO2 T03000142
KMCX 192035Z AUTO 18008KT 10SM CLR 30/14 A2994 RMK AO2 T02970143
KMCX 192015Z AUTO 17008KT 10SM SCT060 30/14 A2994 RMK AO2 T02960141
KMCX 191955Z AUTO 17009G14KT 10SM SCT060 30/14 A2995 RMK AO2 T02970143
KMCX 191935Z AUTO 17007KT 10SM SCT050 29/14 A2995 RMK AO2 T02940142
KMCX 191915Z AUTO 17008KT 10SM SCT050 29/14 A2996 RMK AO2 T02940144
KMCX 191855Z AUTO 17007KT 130V190 10SM SCT050 29/15 A2996 RMK AO2 T02880145
KMCX 191835Z AUTO 18010G15KT 10SM SCT050 29/14 A2997 RMK AO2 T02920139
KMCX 191815Z AUTO 16008KT 10SM SCT050 29/15 A2997 RMK AO2 T02870150
KMCX 191755Z AUTO 18007KT 10SM SCT050 29/15 A2998 RMK AO2 T02870154 10287 20168
KMCX 191735Z AUTO 17009G14KT 10SM CLR 29/15 A2998 RMK AO2 T02860147
KMCX 191715Z AUTO 16008KT 10SM CLR 28/16 A2999 RMK AO2 T02780160
KMCX 191655Z AUTO 16008KT 140V200 10SM CLR 27/15 A2999 RMK AO2 T02740153
KMCX 191635Z AUTO 16010G15KT 10SM CLR 28/16 A3000 RMK AO2 T02750155
KMCX 191615Z AUTO 16007KT 10SM CLR 27/16 A3000 RMK AO2 T02730155
KMCX 191555Z AUTO 16008KT 10SM CLR 27/16 A3000 RMK AO2 T02650156
KMCX 191535Z AUTO 16006KT 10SM CLR 26/16 A3000 RMK AO2 T02550160
KMCX 191515Z AUTO 15007KT 10SM CLR 25/16 A3000 RMK AO2 T02510158
KMCX 191455Z AUTO 16005KT 10SM CLR 25/16 A3001 RMK AO2 T02460158
KMCX 191435Z AUTO 17006KT 10SM CLR 25/16 A3001 RMK AO2 T02480155
KMCX 191415Z AUTO 14003KT 10SM CLR 24/16 A3002 RMK AO2 T02370158
KMCX 191355Z AUTO 13004KT 10SM CLR 22/15 A3002 RMK AO2 T02230154
KMCX 191335Z AUTO 12005KT 10SM CLR 22/16 A3002 RMK AO2 T02220155
KMCX 191315Z AUTO 14004KT 10SM CLR 21/15 A3003 RMK AO2 T02090149
KMCX 191255Z AUTO 12003KT 10SM CLR 20/15 A3003 RMK AO2 T01980151
KMCX 191235Z AUTO 13004KT 10SM CLR 19/15 A3002 RMK AO2 T01880148
KMCX 191215Z AUTO 00000KT 10SM CLR 18/15 A3002 RMK AO2 T01780148
KMCX 191155Z AUTO 00000KT 10SM CLR 17/15 A3001 RMK AO2 T01670147 10171 20141
KMCX 191135Z AUTO 00000KT 10SM CLR 17/14 A3001 RMK AO2 T01660144
KMCX 191115Z AUTO 00000KT 10SM CLR 16/15 A3001 RMK AO2 T01610146
KMCX 191055Z AUTO 00000KT 10SM CLR 15/14 A3001 RMK AO2 T01510144
KMCX 191035Z AUTO 00000KT 10SM CLR 15/14 A3001 RMK AO2 T01500141
KMCX 191015Z AUTO 00000KT 10SM CLR 15/14 A3001 RMK AO2 T01480141
KMCX 190955Z AUTO 00000KT 10SM CLR 15/14 A3001 RMK AO2 T01500141
KMCX 190935Z AUTO 00000KT 10SM CLR 15/14 A3001 RMK AO2 T01510142
KMCX 190915Z AUTO 00000KT 10SM CLR 14/14 A3002 RMK AO2 T01430136
KMCX 190855Z AUTO 00000KT 10SM CLR 15/14 A3002 RMK AO2 T01500140
KMCX 190835Z AUTO 00000KT 10SM CLR 15/14 A3002 RMK AO2 T01490140
KMCX 190815Z AUTO 00000KT 10SM CLR 15/14 A3002 RMK AO2 T01490141
KMCX 190755Z AUTO 00000KT 10SM CLR 16/14 A3002 RMK AO2 T01560140
KMCX 190735Z AUTO 00000KT 10SM CLR 16/14 A3002 RMK AO2 T01570136
KMCX 190715Z AUTO 00000KT 10SM CLR 16/14 A3003 RMK AO2 T01570136
KMCX 190655Z AUTO 06003KT 10SM CLR 16/14 A3003 RMK AO2 T01580136
KMCX 190635Z AUTO 00000KT 10SM CLR 16/14 A3004 RMK AO2 T01620135
KMCX 190615Z AUTO 00000KT 10SM CLR 16/13 A3004 RMK AO2 T01640134
KMCX 190555Z AUTO 05003KT 10SM CLR 17/13 A3003 RMK AO2 T01720130 10258 20171
KMCX 190535Z AUTO 04004KT 10SM CLR 17/13 A3003 RMK AO2 T01720130
KMCX 190515Z AUTO 00000KT 10SM CLR 18/13 A3004 RMK AO2 T01750131
KMCX 190455Z AUTO 03004KT 10SM CLR 18/13 A3004 RMK AO2 T01810127 402780112
KMCX 190435Z AUTO 04003KT 10SM CLR 18/13 A3004 RMK AO2 T01820128
KMCX 190415Z AUTO 02003KT 10SM CLR 19/13 A3004 RMK AO2 T01850128
KMCX 190355Z AUTO 02005KT 10SM CLR 19/13 A3004 RMK AO2 T01900126
KMCX 190335Z AUTO 02006KT 10SM CLR 19/13 A3004 RMK AO2 T01940125
KMCX 190315Z AUTO 02005KT 10SM CLR 20/12 A3004 RMK AO2 T01970122
KMCX 190255Z AUTO 01006KT 10SM CLR 20/12 A3004 RMK AO2 T02010122
KMCX 190235Z AUTO 01006KT 10SM CLR 20/12 A3004 RMK AO2 T02030123
KMCX 190215Z AUTO 01004KT 10SM CLR 21/12 A3003 RMK AO2 T02090122
KMCX 190155Z AUTO 01004KT 10SM CLR 20/13 A3003 RMK AO2 T01990133
KMCX 190135Z AUTO 01004KT 10SM CLR 22/12 A3002 RMK AO2 T02150124
KMCX 190115Z AUTO 01006KT 10SM CLR 22/13 A3002 RMK AO2 T02190130
KMCX 190055Z AUTO 00000KT 10SM CLR 22/18 A3002 RMK AO2 T02240180
KMCX 190035Z AUTO 30003KT 10SM CLR 24/16 A3002 RMK AO2 T02360163
KMCX 190015Z AUTO 30003KT 10SM CLR 25/16 A3002 RMK AO2 T02500156
KMCX 182355Z AUTO 31003KT 10SM CLR 26/15 A3002 RMK AO2 T02590146 10278 20253
KMCX 182335Z AUTO 00000KT 10SM CLR 26/14 A3002 RMK AO2 T02630143
KMCX 182315Z AUTO 29003KT 10SM CLR 27/15 A3002 RMK AO2 T02660146
KMCX 182255Z AUTO 00000KT 10SM CLR 27/13 A3002 RMK AO2 T02680133
KMCX 182235Z AUTO 00000KT 10SM CLR 27/13 A3002 RMK AO2 T02690132
KMCX 182215Z AUTO 00000KT 10SM CLR 27/13 A3002 RMK AO2 T02740130
KMCX 182155Z AUTO 08003KT 10SM SCT055 28/12 A3003 RMK AO2 T02760119
KMCX 182135Z AUTO 00000KT 10SM SCT055 27/13 A3004 RMK AO2 T02710125
KMCX 182115Z AUTO 03004KT 10SM SCT055 28/14 A3004 RMK AO2 T02770136
KMCX 182055Z AUTO 00000KT 10SM CLR 27/12 A3005 RMK AO2 T02720124
KMCX 182035Z AUTO 03003KT 10SM CLR 27/14 A3006 RMK AO2 T02730135
KMCX 182015Z AUTO 00000KT 10SM CLR 27/13 A3006 RMK AO2 T02690133
KMCX 181955Z AUTO 00000KT 10SM CLR 27/12 A3007 RMK AO2 T02670124
KMCX 181935Z AUTO 10003KT 10SM CLR 27/14 A3007 RMK AO2 T02740135
KMCX 181915Z AUTO 07003KT 10SM SCT050 27/13 A3007 RMK AO2 T02670130
KMCX 181855Z AUTO 02005KT 10SM SCT050 26/14 A3008 RMK AO2 T02570136
KMCX 181835Z AUTO 29003KT 10SM SCT048 26/14 A3008 RMK AO2 T02580137
KMCX 181815Z AUTO 33003KT 10SM SCT045 26/14 A3009 RMK AO2 T02630139
KMCX 181755Z AUTO 00000KT 10SM SCT045 26/14 A3009 RMK AO2 T02570137 10259 20155
KMCX 181735Z AUTO 05004KT 10SM CLR 25/14 A3009 RMK AO2 T02530139
KMCX 181715Z AUTO 03003KT 10SM CLR 25/14 A3010 RMK AO2 T02520140
KMCX 181655Z AUTO 05004KT 10SM CLR 25/14 A3011 RMK AO2 T02480138
KMCX 181635Z AUTO 03003KT 10SM CLR 25/14 A3011 RMK AO2 T02480143
KMCX 181615Z AUTO 03004KT 10SM CLR 24/15 A3011 RMK AO2 T02440146
KMCX 181555Z AUTO 00000KT 10SM CLR 24/15 A3011 RMK AO2 T02370149
KMCX 181535Z AUTO 00000KT 10SM CLR 23/15 A3011 RMK AO2 T02320150
KMCX 181515Z AUTO 00000KT 10SM CLR 22/15 A3011 RMK AO2 T02210150
KMCX 181455Z AUTO 00000KT 10SM CLR 22/15 A3011 RMK AO2 T02150152
KMCX 181435Z AUTO 36003KT 10SM CLR 20/15 A3011 RMK AO2 T02030149
KMCX 181415Z AUTO 00000KT 10SM CLR 20/15 A3011 RMK AO2 T01990146
KMCX 181355Z AUTO 07004KT 10SM CLR 19/14 A3011 RMK AO2 T01920143
KMCX 181335Z AUTO 04003KT 10SM CLR 19/14 A3012 RMK AO2 T01860141
KMCX 181315Z AUTO 04004KT 10SM CLR 18/14 A3012 RMK AO2 T01810140
KMCX 181255Z AUTO 00000KT 10SM CLR 18/14 A3012 RMK AO2 T01750136
KMCX 181235Z AUTO 02004KT 10SM CLR 17/14 A3011 RMK AO2 T01700141
KMCX 181215Z AUTO 36003KT 10SM CLR 16/14 A3011 RMK AO2 T01610140
KMCX 181155Z AUTO 36003KT 10SM CLR 16/14 A3011 RMK AO2 T01550137 10155 20112
KMCX 181135Z AUTO 00000KT 10SM CLR 14/13 A3011 RMK AO2 T01410133
KMCX 181115Z AUTO 34003KT 10SM CLR 13/12 A3010 RMK AO2 T01260120
KMCX 181055Z AUTO 34004KT 10SM CLR 12/11 A3011 RMK AO2 T01150108
KMCX 181035Z AUTO 00000KT 10SM CLR 12/11 A3011 RMK AO2 T01210113
KMCX 181015Z AUTO 00000KT 10SM CLR 12/11 A3010 RMK AO2 T01170110
KMCX 180955Z AUTO 00000KT 10SM CLR 12/11 A3011 RMK AO2 T01150108
KMCX 180935Z AUTO 00000KT 10SM CLR 12/11 A3010 RMK AO2 T01180110
KMCX 180915Z AUTO 34004KT 10SM CLR 12/11 A3010 RMK AO2 T01150107